Time;durP1;ratioP1;P1;durP2;ratioP2;P2;SDS_P1;SDS_P2;PMS_P1;PMS_P2;Temp;Humidity;BMP_temperature;BMP_pressure;BME280_temperature;BME280_humidity;BME280_pressure;Samples;Min_cycle;Max_cycle;Signal;HPM_P1;HPM_P2
2023/04/13 00:01:39;;;;;;;1.57;1.03;;;7.20;99.90;;;;;;5010374;28;20208;-82
2023/04/13 00:04:04;;;;;;;2.63;2.43;;;7.10;99.90;;;;;;5015063;28;20228;-84
2023/04/13 00:06:30;;;;;;;2.70;1.63;;;7.10;99.90;;;;;;5014989;28;20531;-83
2023/04/13 00:08:57;;;;;;;2.23;1.00;;;7.10;99.90;;;;;;5015334;28;20170;-83
2023/04/13 00:11:23;;;;;;;3.47;1.60;;;7.00;99.90;;;;;;5007674;28;20186;-82
2023/04/13 00:13:48;;;;;;;2.63;1.20;;;7.00;99.90;;;;;;5015858;28;20187;-83
2023/04/13 00:16:15;;;;;;;1.07;0.70;;;7.00;99.90;;;;;;5014233;28;20667;-84
2023/04/13 00:18:41;;;;;;;3.22;0.90;;;7.00;99.90;;;;;;5016422;28;20171;-83
2023/04/13 00:21:07;;;;;;;1.23;1.10;;;6.90;99.90;;;;;;5009605;28;20226;-83
2023/04/13 00:23:34;;;;;;;1.20;1.10;;;6.80;99.90;;;;;;5017108;28;20517;-86
2023/04/13 00:26:01;;;;;;;3.05;1.70;;;6.80;99.90;;;;;;5006808;28;20222;-82
2023/04/13 00:28:28;;;;;;;2.08;0.70;;;6.80;99.90;;;;;;5001077;28;20239;-82
2023/04/13 00:30:54;;;;;;;3.22;1.00;;;6.80;99.90;;;;;;5001487;28;20206;-82
2023/04/13 00:33:20;;;;;;;1.50;0.93;;;6.80;99.90;;;;;;4998898;28;20233;-82
2023/04/13 00:35:45;;;;;;;3.53;0.87;;;6.80;99.90;;;;;;4995086;28;20774;-81
2023/04/13 00:38:11;;;;;;;3.00;0.90;;;6.80;99.90;;;;;;4995420;28;20950;-82
2023/04/13 00:40:36;;;;;;;6.37;0.60;;;6.60;99.90;;;;;;4995733;28;20209;-81
2023/04/13 00:43:04;;;;;;;1.00;0.70;;;6.60;99.90;;;;;;4995106;28;20216;-82
2023/04/13 00:45:32;;;;;;;0.95;0.60;;;6.60;99.90;;;;;;4992360;28;20915;-82
2023/04/13 00:47:58;;;;;;;1.92;0.90;;;6.60;99.90;;;;;;4994072;28;20548;-82
2023/04/13 00:50:24;;;;;;;0.80;0.57;;;6.60;99.90;;;;;;4993720;28;20205;-82
2023/04/13 00:52:50;;;;;;;2.87;0.70;;;6.60;99.90;;;;;;4995580;28;20195;-81
2023/04/13 00:55:19;;;;;;;3.50;0.87;;;6.60;99.90;;;;;;4995826;28;20449;-82
2023/04/13 00:57:48;;;;;;;2.85;0.88;;;6.50;99.90;;;;;;4993902;28;20434;-81
2023/04/13 01:00:16;;;;;;;1.65;0.60;;;6.50;99.90;;;;;;4991878;28;20567;-82
2023/04/13 01:02:41;;;;;;;1.50;0.80;;;6.40;99.90;;;;;;4997949;28;20213;-82
2023/04/13 01:05:07;;;;;;;3.03;0.60;;;6.30;99.90;;;;;;4999160;28;20184;-84
2023/04/13 01:08:00;;;;;;;1.15;0.80;;;6.10;99.90;;;;;;5000920;28;20258;-82
2023/04/13 01:10:35;;;;;;;4.03;0.90;;;6.00;99.90;;;;;;5002672;28;20608;-80
2023/04/13 01:13:19;;;;;;;0.63;0.57;;;6.00;99.90;;;;;;5006000;28;20538;-82
2023/04/13 01:16:00;;;;;;;1.88;1.15;;;5.90;99.90;;;;;;5007340;28;20174;-82
2023/04/13 01:18:27;;;;;;;1.45;0.80;;;5.90;99.90;;;;;;5010332;28;20654;-82
2023/04/13 01:20:53;;;;;;;2.95;1.30;;;5.70;99.90;;;;;;5011566;28;20273;-82
2023/04/13 01:24:00;;;;;;;0.50;0.50;;;5.50;99.90;;;;;;5011112;28;20222;-81
2023/04/13 01:26:36;;;;;;;1.10;0.60;;;5.50;99.90;;;;;;5004649;28;20179;-81
2023/04/13 01:29:02;;;;;;;0.88;0.70;;;5.60;99.90;;;;;;5007704;28;20603;-83
2023/04/13 01:31:28;;;;;;;1.88;1.38;;;5.60;99.90;;;;;;5005992;28;20182;-81
2023/04/13 01:33:54;;;;;;;1.17;0.50;;;5.60;99.90;;;;;;5012752;28;20171;-82
2023/04/13 01:36:20;;;;;;;1.08;0.63;;;5.60;99.90;;;;;;5006795;28;20411;-82
2023/04/13 01:38:46;;;;;;;0.70;0.50;;;5.70;99.90;;;;;;5008594;28;20317;-81
2023/04/13 01:41:12;;;;;;;1.70;0.70;;;5.80;99.90;;;;;;5010116;28;20244;-81
2023/04/13 01:43:38;;;;;;;7.35;0.55;;;5.90;99.90;;;;;;5012489;28;20209;-81
2023/04/13 01:46:10;;;;;;;1.37;0.60;;;5.80;99.90;;;;;;5015066;28;20172;-81
2023/04/13 01:48:47;;;;;;;2.63;0.40;;;5.70;99.90;;;;;;5018439;28;20166;-81
2023/04/13 01:51:18;;;;;;;3.10;0.50;;;5.60;99.90;;;;;;5009999;28;20187;-81
2023/04/13 01:53:47;;;;;;;1.00;0.68;;;5.50;99.90;;;;;;5006287;28;20181;-81
2023/04/13 01:56:18;;;;;;;3.22;1.15;;;5.40;99.90;;;;;;5010112;28;20186;-81
2023/04/13 01:58:46;;;;;;;3.13;0.70;;;5.20;99.90;;;;;;5009795;28;20166;-81
2023/04/13 02:01:13;;;;;;;3.05;0.88;;;5.30;99.90;;;;;;5010969;28;20211;-81
2023/04/13 02:03:38;;;;;;;1.00;0.68;;;5.20;99.90;;;;;;5014033;28;20214;-81
2023/04/13 02:06:06;;;;;;;1.00;0.50;;;5.10;99.90;;;;;;5017070;28;20175;-80
2023/04/13 02:08:31;;;;;;;2.40;0.60;;;5.10;99.90;;;;;;5015435;28;20187;-81
2023/04/13 02:10:57;;;;;;;6.50;0.57;;;5.00;99.90;;;;;;5023450;28;20217;-81
2023/04/13 02:13:24;;;;;;;1.83;0.70;;;5.00;99.90;;;;;;5006519;28;20187;-81
2023/04/13 02:15:49;;;;;;;2.08;0.50;;;5.10;99.90;;;;;;5017064;28;20354;-81
2023/04/13 02:18:15;;;;;;;0.80;0.60;;;4.90;99.90;;;;;;5013222;28;20194;-84
2023/04/13 02:20:43;;;;;;;1.43;1.10;;;5.00;99.90;;;;;;5007317;28;20279;-82
2023/04/13 02:23:13;;;;;;;1.30;0.68;;;4.90;99.90;;;;;;5006842;28;20610;-82
2023/04/13 02:25:40;;;;;;;0.50;0.50;;;5.00;99.90;;;;;;5018105;28;20194;-82
2023/04/13 02:28:07;;;;;;;2.15;0.60;;;5.20;99.90;;;;;;5017290;28;20178;-83
2023/04/13 02:30:33;;;;;;;2.08;0.70;;;5.10;99.90;;;;;;5010583;28;20198;-83
2023/04/13 02:32:59;;;;;;;1.15;0.80;;;5.30;99.90;;;;;;5016113;28;20178;-83
2023/04/13 02:35:24;;;;;;;1.17;0.90;;;5.30;99.90;;;;;;5004594;28;20183;-83
2023/04/13 02:37:50;;;;;;;0.50;0.40;;;5.20;99.90;;;;;;5005988;28;20187;-83
2023/04/13 02:40:15;;;;;;;1.53;0.90;;;5.20;99.90;;;;;;5009494;28;20203;-84
2023/04/13 02:42:41;;;;;;;1.43;0.63;;;5.10;99.90;;;;;;5010311;28;20777;-84
2023/04/13 02:45:11;;;;;;;0.50;0.50;;;5.10;99.90;;;;;;5015315;28;20167;-82
2023/04/13 02:47:37;;;;;;;5.40;0.90;;;5.10;99.90;;;;;;5013943;28;20436;-82
2023/04/13 02:50:03;;;;;;;3.92;0.73;;;5.00;99.90;;;;;;5009169;28;20195;-82
2023/04/13 02:52:28;;;;;;;1.07;0.87;;;4.90;99.90;;;;;;5012780;28;20926;-82
2023/04/13 02:54:54;;;;;;;1.13;0.73;;;4.80;99.90;;;;;;5012947;28;20489;-82
2023/04/13 02:57:21;;;;;;;0.67;0.40;;;4.60;99.90;;;;;;5009449;28;20205;-82
2023/04/13 02:59:47;;;;;;;4.85;0.70;;;4.40;99.90;;;;;;5014586;28;20264;-82
2023/04/13 03:02:13;;;;;;;2.03;0.80;;;4.10;99.90;;;;;;5012833;28;20175;-82
2023/04/13 03:04:38;;;;;;;3.55;0.73;;;3.90;99.90;;;;;;5008535;28;20496;-82
2023/04/13 03:07:08;;;;;;;1.57;0.77;;;3.80;99.90;;;;;;5012159;28;20174;-81
2023/04/13 03:09:38;;;;;;;1.42;0.82;;;3.80;99.90;;;;;;5017261;28;20182;-82
2023/04/13 03:12:06;;;;;;;3.90;0.95;;;3.70;99.90;;;;;;5018914;28;20181;-81
2023/04/13 03:14:32;;;;;;;0.50;0.50;;;3.70;99.90;;;;;;5006170;28;20186;-82
2023/04/13 03:16:58;;;;;;;2.10;0.77;;;3.70;99.90;;;;;;5012193;28;20734;-82
2023/04/13 03:19:25;;;;;;;0.90;0.80;;;3.70;99.90;;;;;;5005241;28;20483;-83
2023/04/13 03:21:51;;;;;;;3.95;1.08;;;3.70;99.90;;;;;;5006566;28;20476;-83
2023/04/13 03:24:16;;;;;;;1.05;0.50;;;3.80;99.90;;;;;;5002870;28;20238;-82
2023/04/13 03:26:42;;;;;;;0.50;0.50;;;3.80;99.90;;;;;;5004553;28;20182;-83
2023/04/13 03:29:07;;;;;;;2.23;0.83;;;4.00;99.90;;;;;;5005296;28;20221;-83
2023/04/13 03:31:33;;;;;;;5.90;1.37;;;4.00;99.90;;;;;;5010384;28;20210;-83
2023/04/13 03:33:59;;;;;;;0.67;0.63;;;4.20;99.90;;;;;;5004737;28;20229;-83
2023/04/13 03:36:26;;;;;;;2.37;1.03;;;4.20;99.90;;;;;;5006353;28;20175;-84
2023/04/13 03:38:52;;;;;;;1.25;0.70;;;4.20;99.90;;;;;;5010223;28;20713;-83
2023/04/13 03:41:18;;;;;;;2.88;1.10;;;4.60;99.90;;;;;;5005802;28;20201;-83
2023/04/13 03:43:43;;;;;;;1.20;0.90;;;5.10;99.90;;;;;;5013092;28;20647;-83
2023/04/13 03:46:09;;;;;;;2.10;0.70;;;5.30;99.90;;;;;;5013829;28;20262;-83
2023/04/13 03:48:35;;;;;;;4.18;0.90;;;5.50;99.90;;;;;;5008839;28;20643;-82
2023/04/13 03:51:01;;;;;;;1.23;0.87;;;5.50;99.90;;;;;;5006850;28;20245;-83
2023/04/13 03:53:27;;;;;;;1.43;1.03;;;5.60;99.90;;;;;;5006221;28;20170;-83
2023/04/13 03:55:53;;;;;;;3.00;1.02;;;5.80;99.90;;;;;;5012778;28;20250;-83
2023/04/13 03:58:18;;;;;;;4.10;1.23;;;5.70;99.90;;;;;;5006318;28;20248;-83
2023/04/13 04:00:44;;;;;;;2.87;0.83;;;5.80;99.90;;;;;;5008619;28;20540;-82
2023/04/13 04:03:10;;;;;;;7.40;1.20;;;5.90;99.90;;;;;;5005863;28;20800;-82
2023/04/13 04:05:37;;;;;;;0.73;0.50;;;6.10;99.90;;;;;;5008932;28;20184;-83
2023/04/13 04:08:02;;;;;;;1.90;1.67;;;6.10;99.90;;;;;;5001301;28;20176;-84
2023/04/13 04:10:28;;;;;;;1.03;0.53;;;6.10;99.90;;;;;;5001548;28;20203;-82
2023/04/13 04:12:53;;;;;;;3.03;0.50;;;6.10;99.90;;;;;;5004062;28;20190;-82
2023/04/13 04:15:19;;;;;;;6.23;0.97;;;6.10;99.90;;;;;;5007001;28;20274;-83
2023/04/13 04:17:45;;;;;;;3.60;0.90;;;6.20;99.90;;;;;;5004684;28;20589;-83
2023/04/13 04:20:10;;;;;;;2.27;0.77;;;6.10;99.90;;;;;;5005545;28;20265;-83
2023/04/13 04:22:36;;;;;;;1.10;0.80;;;6.10;99.90;;;;;;5008251;28;20193;-84
2023/04/13 04:25:01;;;;;;;8.07;1.07;;;6.10;99.90;;;;;;5014064;28;20174;-85
2023/04/13 04:27:27;;;;;;;5.50;1.13;;;6.10;99.90;;;;;;5003649;28;20174;-83
2023/04/13 04:29:57;;;;;;;0.90;0.43;;;6.20;99.90;;;;;;5006104;28;20840;-83
2023/04/13 04:32:24;;;;;;;1.17;0.70;;;6.20;99.90;;;;;;5010096;28;20170;-83
2023/04/13 04:34:53;;;;;;;1.42;0.70;;;6.20;99.90;;;;;;5001670;28;20186;-85
2023/04/13 04:37:22;;;;;;;5.63;1.63;;;6.20;99.90;;;;;;5003816;28;20343;-83
2023/04/13 04:39:47;;;;;;;5.13;2.97;;;6.20;99.90;;;;;;5001043;28;20266;-83
2023/04/13 04:42:13;;;;;;;1.40;0.67;;;6.20;99.90;;;;;;5003696;28;20185;-84
2023/04/13 04:44:39;;;;;;;1.50;0.87;;;;;;;;;;5001436;28;20598;-84
2023/04/13 04:47:05;;;;;;;2.33;0.60;;;;;;;;;;4999953;28;20846;-83
2023/04/13 04:49:32;;;;;;;1.55;0.73;;;6.10;99.90;;;;;;5002112;28;20457;-82
2023/04/13 04:51:58;;;;;;;1.95;0.57;;;6.00;99.90;;;;;;5003075;28;20179;-82
2023/04/13 04:54:24;;;;;;;1.27;0.80;;;;;;;;;;5005035;28;20186;-83
2023/04/13 04:56:50;;;;;;;2.67;0.60;;;6.20;99.90;;;;;;5003003;28;20175;-83
2023/04/13 04:59:19;;;;;;;1.20;0.65;;;6.10;99.90;;;;;;5005590;28;20198;-83
2023/04/13 05:01:45;;;;;;;4.00;0.68;;;6.20;99.90;;;;;;5004007;28;20580;-83
2023/04/13 05:04:10;;;;;;;2.20;0.60;;;6.20;99.90;;;;;;5002180;28;20274;-83
2023/04/13 05:06:39;;;;;;;0.80;0.53;;;6.20;99.90;;;;;;5000800;28;20179;-82
2023/04/13 05:09:05;;;;;;;2.97;0.80;;;6.20;99.90;;;;;;5000626;28;20167;-83
2023/04/13 05:11:32;;;;;;;4.05;0.90;;;6.20;99.90;;;;;;5002217;28;20198;-83
2023/04/13 05:13:58;;;;;;;2.60;0.85;;;6.20;99.90;;;;;;5013667;28;20187;-84
2023/04/13 05:16:24;;;;;;;2.92;0.70;;;6.20;99.90;;;;;;4997403;28;20276;-85
2023/04/13 05:18:50;;;;;;;2.27;0.60;;;6.20;99.90;;;;;;5004633;28;21064;-83
2023/04/13 05:21:17;;;;;;;2.25;1.17;;;6.20;99.90;;;;;;5013699;28;20434;-83
2023/04/13 05:23:43;;;;;;;2.63;0.65;;;6.20;99.90;;;;;;5005327;28;20234;-84
2023/04/13 05:26:10;;;;;;;1.00;0.90;;;6.20;99.90;;;;;;5006249;28;20220;-83
2023/04/13 05:28:36;;;;;;;3.83;0.93;;;6.30;99.90;;;;;;5005013;28;20210;-83
2023/04/13 05:31:07;;;;;;;5.00;1.20;;;6.30;99.90;;;;;;5003473;28;20683;-83
2023/04/13 05:33:33;;;;;;;9.95;1.17;;;6.40;99.90;;;;;;5005412;28;20258;-82
2023/04/13 05:35:59;;;;;;;3.80;0.90;;;6.40;99.90;;;;;;5005317;28;20641;-83
2023/04/13 05:38:25;;;;;;;6.97;1.07;;;;;;;;;;5005419;28;20679;-82
2023/04/13 05:40:52;;;;;;;1.98;0.52;;;6.40;99.90;;;;;;5007589;28;20468;-82
2023/04/13 05:43:18;;;;;;;3.88;1.13;;;6.50;99.90;;;;;;5002153;28;20576;-83
2023/04/13 05:45:44;;;;;;;4.28;1.13;;;6.40;99.90;;;;;;5000308;28;20181;-83
2023/04/13 05:48:09;;;;;;;1.50;0.60;;;6.40;99.90;;;;;;4999631;28;20191;-83
2023/04/13 05:50:35;;;;;;;5.90;1.67;;;6.50;99.90;;;;;;4999470;28;20662;-83
2023/04/13 05:53:00;;;;;;;2.40;0.60;;;6.50;99.90;;;;;;4997836;28;20293;-83
2023/04/13 05:55:26;;;;;;;5.37;1.10;;;6.50;99.90;;;;;;4999748;28;20190;-83
2023/04/13 05:57:52;;;;;;;1.77;0.80;;;6.50;99.90;;;;;;4999578;28;20202;-83
2023/04/13 06:00:20;;;;;;;1.30;0.70;;;6.60;99.90;;;;;;5005173;28;20209;-83
2023/04/13 06:02:47;;;;;;;5.70;0.85;;;6.70;99.90;;;;;;4998418;28;20187;-83
2023/04/13 06:05:15;;;;;;;2.25;1.00;;;6.80;99.90;;;;;;5002618;28;20563;-83
2023/04/13 06:07:43;;;;;;;4.60;0.65;;;6.80;99.90;;;;;;5001400;28;20186;-83
2023/04/13 06:10:09;;;;;;;5.38;1.00;;;6.80;99.90;;;;;;5000383;28;20191;-83
2023/04/13 06:12:35;;;;;;;5.45;1.95;;;7.00;99.90;;;;;;5001965;28;20195;-83
2023/04/13 06:15:01;;;;;;;7.43;1.43;;;7.00;99.90;;;;;;5001305;28;20179;-83
2023/04/13 06:17:26;;;;;;;9.43;1.73;;;7.10;99.90;;;;;;5002650;28;20190;-83
2023/04/13 06:19:53;;;;;;;3.47;1.00;;;7.20;99.90;;;;;;5003649;28;20461;-83
2023/04/13 06:22:19;;;;;;;6.22;1.17;;;7.40;99.90;;;;;;5004695;28;20183;-83
2023/04/13 06:24:44;;;;;;;4.43;0.90;;;7.50;99.90;;;;;;5000540;28;20217;-83
2023/04/13 06:27:10;;;;;;;1.30;0.90;;;7.60;99.90;;;;;;5001791;28;20877;-84
2023/04/13 06:29:36;;;;;;;6.90;1.50;;;7.70;99.90;;;;;;5003138;28;20579;-83
2023/04/13 06:32:03;;;;;;;4.10;0.70;;;7.70;99.90;;;;;;5000919;28;20214;-83
2023/04/13 06:34:29;;;;;;;3.97;1.17;;;7.80;99.90;;;;;;4995593;28;20450;-83
2023/04/13 06:36:54;;;;;;;2.50;0.70;;;7.80;99.90;;;;;;5003171;28;20186;-83
2023/04/13 06:39:20;;;;;;;4.73;1.03;;;8.00;99.90;;;;;;5001846;28;20522;-83
2023/04/13 06:41:47;;;;;;;1.97;1.00;;;8.00;99.90;;;;;;5001208;28;20186;-83
2023/04/13 06:44:12;;;;;;;6.43;1.48;;;7.90;99.90;;;;;;5004418;28;20198;-83
2023/04/13 06:46:38;;;;;;;4.67;1.33;;;7.70;99.90;;;;;;5003617;28;20858;-83
2023/04/13 06:49:04;;;;;;;6.57;1.53;;;7.80;99.90;;;;;;5002117;28;20594;-83
2023/04/13 06:51:30;;;;;;;6.87;2.80;;;7.80;99.90;;;;;;5002104;28;20586;-83
2023/04/13 06:53:55;;;;;;;4.53;1.23;;;8.00;99.90;;;;;;5003521;28;20597;-83
2023/04/13 06:56:21;;;;;;;6.07;1.00;;;8.10;99.90;;;;;;5002969;28;20195;-82
2023/04/13 06:58:46;;;;;;;6.13;1.67;;;8.20;99.90;;;;;;5001452;28;20174;-83
2023/04/13 07:01:12;;;;;;;4.73;1.10;;;8.50;99.90;;;;;;5002863;28;20675;-82
2023/04/13 07:03:37;;;;;;;3.40;1.13;;;8.70;99.90;;;;;;4997736;28;20211;-86
2023/04/13 07:06:04;;;;;;;5.43;1.20;;;8.90;99.90;;;;;;4993956;28;20210;-85
2023/04/13 07:08:31;;;;;;;3.45;1.65;;;8.90;99.90;;;;;;4996606;28;20266;-84
2023/04/13 07:10:56;;;;;;;3.50;1.25;;;9.40;99.90;;;;;;4997127;28;20202;-84
2023/04/13 07:13:26;;;;;;;3.17;1.33;;;10.20;99.90;;;;;;4994802;28;20194;-84
2023/04/13 07:15:52;;;;;;;4.47;1.52;;;12.10;99.90;;;;;;4996625;28;20437;-85
2023/04/13 07:18:17;;;;;;;2.40;1.20;;;13.90;99.90;;;;;;4997549;28;20194;-85
2023/04/13 07:20:43;;;;;;;6.73;1.73;;;;;;;;;;4997529;28;20218;-85
2023/04/13 07:23:09;;;;;;;10.80;1.40;;;16.60;99.90;;;;;;4993959;28;20278;-85
2023/04/13 07:25:35;;;;;;;3.13;1.10;;;;;;;;;;4997018;28;20529;-85
2023/04/13 07:28:01;;;;;;;2.83;1.33;;;14.50;99.90;;;;;;4996951;28;20855;-83
2023/04/13 07:30:26;;;;;;;4.63;1.10;;;13.30;99.90;;;;;;4997731;28;20485;-85
2023/04/13 07:32:52;;;;;;;4.17;1.40;;;14.50;99.90;;;;;;4993250;28;20245;-84
2023/04/13 07:35:18;;;;;;;9.10;1.77;;;16.40;99.90;;;;;;4991540;28;20179;-84
2023/04/13 07:37:45;;;;;;;3.10;1.97;;;;;;;;;;4994800;28;20433;-85
2023/04/13 07:40:12;;;;;;;4.63;1.50;;;15.60;99.60;;;;;;4993869;28;20203;-85
2023/04/13 07:42:38;;;;;;;3.33;1.33;;;14.90;99.90;;;;;;4995331;28;21443;-84
2023/04/13 07:45:05;;;;;;;7.60;1.37;;;14.80;99.90;;;;;;4998403;28;21001;-84
2023/04/13 07:47:31;;;;;;;4.33;1.73;;;13.70;99.90;;;;;;4996054;28;20437;-84
2023/04/13 07:49:57;;;;;;;15.20;1.43;;;12.40;99.90;;;;;;4993232;28;21281;-85
2023/04/13 07:52:23;;;;;;;4.93;1.77;;;11.90;99.90;;;;;;4997318;28;20508;-84
2023/04/13 07:54:48;;;;;;;3.23;1.37;;;12.70;99.90;;;;;;5002132;28;20277;-83
2023/04/13 07:57:16;;;;;;;3.30;1.40;;;12.40;99.90;;;;;;4998174;28;20190;-83
2023/04/13 07:59:42;;;;;;;4.63;1.00;;;12.40;99.90;;;;;;5003469;28;20213;-84
2023/04/13 08:02:07;;;;;;;4.07;1.27;;;11.90;99.90;;;;;;4999159;28;20671;-84
2023/04/13 08:04:33;;;;;;;4.63;1.40;;;10.90;99.90;;;;;;5003812;28;20710;-85
2023/04/13 08:07:06;;;;;;;4.13;1.90;;;10.80;99.90;;;;;;5006705;28;20178;-84
2023/04/13 08:09:35;;;;;;;4.30;1.27;;;10.80;99.90;;;;;;5004389;28;20202;-85
2023/04/13 08:12:03;;;;;;;4.40;1.60;;;10.80;99.90;;;;;;5001158;28;20658;-85
2023/04/13 08:14:29;;;;;;;21.75;2.78;;;12.10;99.90;;;;;;5003182;28;20183;-85
2023/04/13 08:16:55;;;;;;;9.03;2.57;;;13.00;99.90;;;;;;5007399;28;20184;-84
2023/04/13 08:19:21;;;;;;;6.57;1.43;;;13.00;99.90;;;;;;5005457;28;20485;-86
2023/04/13 08:21:47;;;;;;;9.52;1.58;;;12.80;99.90;;;;;;5007734;28;20998;-85
2023/04/13 08:24:12;;;;;;;2.80;1.30;;;;;;;;;;5006376;28;20310;-85
2023/04/13 08:26:38;;;;;;;7.80;2.87;;;11.50;99.90;;;;;;5006264;28;20182;-86
2023/04/13 08:29:04;;;;;;;4.87;1.70;;;11.70;99.90;;;;;;5005451;28;20517;-85
2023/04/13 08:31:31;;;;;;;6.50;1.43;;;11.40;99.90;;;;;;5003849;28;20185;-85
2023/04/13 08:33:57;;;;;;;6.78;1.33;;;;;;;;;;5008878;28;20171;-84
2023/04/13 08:36:23;;;;;;;10.50;1.50;;;;;;;;;;5005602;28;20205;-86
2023/04/13 08:38:49;;;;;;;7.53;1.73;;;;;;;;;;5020155;28;20525;-84
2023/04/13 08:41:16;;;;;;;7.00;1.50;;;11.60;99.90;;;;;;5005778;28;20545;-86
2023/04/13 08:43:42;;;;;;;9.48;2.03;;;11.80;99.90;;;;;;5005614;28;20476;-85
2023/04/13 08:46:07;;;;;;;12.60;2.47;;;11.50;99.90;;;;;;5007869;28;20270;-84
2023/04/13 08:48:38;;;;;;;3.60;1.60;;;11.70;99.90;;;;;;5003887;28;20453;-85
2023/04/13 08:51:05;;;;;;;4.47;1.42;;;12.10;99.90;;;;;;5006249;28;20201;-85
2023/04/13 08:53:31;;;;;;;3.50;1.88;;;11.90;99.90;;;;;;5011278;28;20187;-85
2023/04/13 08:55:59;;;;;;;8.43;1.80;;;11.00;99.90;;;;;;5010428;28;20642;-84
2023/04/13 08:58:27;;;;;;;5.57;0.95;;;11.00;99.90;;;;;;5009399;28;20433;-82
2023/04/13 09:00:53;;;;;;;5.93;1.67;;;10.60;99.90;;;;;;5005634;28;20218;-82
2023/04/13 09:03:23;;;;;;;14.30;2.60;;;10.80;99.90;;;;;;5005178;28;20213;-83
2023/04/13 09:06:08;;;;;;;6.15;1.55;;;10.80;99.90;;;;;;5009025;28;20179;-85
2023/04/13 09:08:35;;;;;;;4.72;1.70;;;10.30;99.90;;;;;;5025171;28;20183;-85
2023/04/13 09:11:01;;;;;;;11.77;1.77;;;10.00;99.90;;;;;;5009903;28;20294;-84
2023/04/13 09:13:28;;;;;;;4.03;1.45;;;10.30;99.90;;;;;;5006407;28;20199;-85
2023/04/13 09:15:53;;;;;;;12.60;2.00;;;10.20;99.90;;;;;;5003356;28;20206;-85
2023/04/13 09:18:19;;;;;;;6.97;1.70;;;10.30;99.90;;;;;;5003076;28;20187;-85
2023/04/13 09:20:58;;;;;;;7.73;1.93;;;10.40;99.90;;;;;;5007150;28;20713;-84
2023/04/13 09:23:24;;;;;;;7.45;1.73;;;10.20;99.90;;;;;;5001636;28;20199;-86
2023/04/13 09:26:03;;;;;;;2.37;1.50;;;10.20;99.90;;;;;;5005720;28;20890;-84
2023/04/13 09:28:29;;;;;;;6.10;1.60;;;10.30;99.90;;;;;;5000460;28;20425;-84
2023/04/13 09:31:04;;;;;;;9.25;1.75;;;10.50;99.90;;;;;;5002374;28;20210;-86
2023/04/13 09:33:43;;;;;;;8.85;2.25;;;11.00;99.90;;;;;;4999568;28;20179;-85
2023/04/13 09:36:10;;;;;;;6.18;1.95;;;11.30;99.90;;;;;;5004145;28;20193;-85
2023/04/13 09:38:36;;;;;;;9.40;1.85;;;;;;;;;;5004277;28;20217;-85
2023/04/13 09:41:02;;;;;;;10.30;1.67;;;11.10;99.90;;;;;;5001946;28;20289;-86
2023/04/13 09:43:37;;;;;;;2.23;1.27;;;11.50;99.90;;;;;;4996995;28;20458;-85
2023/04/13 09:46:13;;;;;;;8.35;1.65;;;12.20;99.90;;;;;;5001711;28;20217;-86
2023/04/13 09:48:39;;;;;;;5.55;1.33;;;12.40;99.90;;;;;;5001115;28;20187;-85
2023/04/13 09:51:05;;;;;;;7.10;1.55;;;12.60;99.90;;;;;;5001486;28;20281;-85
2023/04/13 09:53:48;;;;;;;15.45;2.08;;;12.70;99.90;;;;;;5002056;28;20186;-85
2023/04/13 09:56:15;;;;;;;3.83;1.80;;;12.80;99.90;;;;;;5005592;28;20269;-85
2023/04/13 09:58:46;;;;;;;5.40;1.80;;;13.60;99.90;;;;;;4998698;28;21615;-86
2023/04/13 10:01:14;;;;;;;9.93;1.30;;;14.10;99.90;;;;;;4999591;28;20449;-86
2023/04/13 10:03:42;;;;;;;7.45;1.33;;;13.30;99.90;;;;;;4998126;28;20466;-86
2023/04/13 10:06:08;;;;;;;13.98;2.58;;;12.10;99.90;;;;;;4999423;28;20187;-86
2023/04/13 10:08:36;;;;;;;5.32;1.70;;;11.70;99.90;;;;;;4999250;28;20179;-85
2023/04/13 10:11:03;;;;;;;5.90;1.65;;;11.10;99.90;;;;;;5000656;28;20206;-84
2023/04/13 10:13:35;;;;;;;5.00;1.88;;;10.60;99.90;;;;;;5000918;28;20182;-85
2023/04/13 10:16:23;;;;;;;10.23;1.58;;;10.30;99.90;;;;;;4999765;28;20179;-83
2023/04/13 10:19:02;;;;;;;9.00;1.20;;;10.20;99.90;;;;;;5014962;28;20228;-84
2023/04/13 10:21:34;;;;;;;13.32;2.42;;;9.80;99.90;;;;;;4998089;28;20272;-85
2023/04/13 10:24:01;;;;;;;3.38;1.02;;;10.00;99.90;;;;;;4999532;28;20221;-85
2023/04/13 10:26:31;;;;;;;4.93;1.08;;;10.10;99.90;;;;;;5001211;28;20182;-83
2023/04/13 10:28:58;;;;;;;5.53;1.77;;;10.00;99.90;;;;;;5000483;28;20179;-84
2023/04/13 10:31:55;;;;;;;19.50;2.85;;;9.80;99.90;;;;;;5001085;28;20206;-83
2023/04/13 10:34:26;;;;;;;15.10;1.48;;;9.90;99.90;;;;;;5000673;28;20199;-80
2023/04/13 10:36:54;;;;;;;6.20;1.00;;;10.10;99.90;;;;;;5001932;28;20183;-80
2023/04/13 10:39:32;;;;;;;2.20;1.17;;;10.00;99.90;;;;;;5000410;28;20202;-80
2023/04/13 10:42:08;;;;;;;1.35;0.50;;;10.00;99.90;;;;;;4998885;28;20190;-82
2023/04/13 10:44:48;;;;;;;2.50;1.05;;;9.50;99.90;;;;;;5003734;28;20789;-79
2023/04/13 10:47:16;;;;;;;8.23;1.50;;;9.60;99.90;;;;;;5003430;28;20179;-79
2023/04/13 10:49:43;;;;;;;12.00;1.35;;;9.60;99.90;;;;;;5006185;28;20734;-80
2023/04/13 10:52:10;;;;;;;6.03;0.80;;;9.70;99.90;;;;;;5003250;28;20194;-80
2023/04/13 10:54:36;;;;;;;1.85;1.13;;;9.60;99.90;;;;;;5000128;28;20639;-82
2023/04/13 10:57:05;;;;;;;2.97;0.98;;;9.80;99.90;;;;;;5007304;28;20194;-82
2023/04/13 10:59:41;;;;;;;2.50;0.98;;;10.10;99.90;;;;;;5005017;28;20199;-82
2023/04/13 11:02:15;;;;;;;1.20;1.02;;;10.30;99.90;;;;;;5004656;28;20190;-82
2023/04/13 11:04:47;;;;;;;5.13;1.25;;;10.00;99.90;;;;;;5007484;28;20194;-82
2023/04/13 11:07:20;;;;;;;2.45;1.17;;;10.30;99.90;;;;;;5007203;28;20171;-80
2023/04/13 11:09:49;;;;;;;2.60;0.98;;;10.60;99.90;;;;;;5004590;28;20206;-81
2023/04/13 11:12:16;;;;;;;5.63;1.05;;;11.00;99.90;;;;;;5008975;28;20198;-82
2023/04/13 11:14:49;;;;;;;4.65;1.10;;;11.00;99.90;;;;;;5004453;28;20179;-80
2023/04/13 11:17:18;;;;;;;2.78;1.30;;;11.40;99.90;;;;;;5010028;28;20195;-83
2023/04/13 11:19:49;;;;;;;3.15;1.13;;;11.50;99.90;;;;;;5005963;28;20206;-81
2023/04/13 11:22:17;;;;;;;6.03;1.45;;;11.20;99.90;;;;;;5006804;28;20191;-82
2023/04/13 11:24:48;;;;;;;2.67;0.85;;;11.10;99.90;;;;;;5006775;28;20203;-82
2023/04/13 11:27:22;;;;;;;1.98;0.80;;;11.10;99.90;;;;;;5007542;28;20186;-82
2023/04/13 11:30:05;;;;;;;2.30;0.95;;;11.40;99.90;;;;;;5005900;28;20568;-81
2023/04/13 11:32:38;;;;;;;4.35;1.00;;;11.00;99.90;;;;;;5006884;28;20178;-82
2023/04/13 11:35:15;;;;;;;3.58;0.80;;;11.00;99.90;;;;;;5008560;28;20172;-82
2023/04/13 11:37:49;;;;;;;4.22;1.50;;;10.80;99.90;;;;;;5006877;28;20221;-82
2023/04/13 11:40:20;;;;;;;4.93;1.42;;;11.00;99.90;;;;;;5004722;28;20351;-82
2023/04/13 11:42:57;;;;;;;0.82;0.70;;;10.70;99.90;;;;;;5006291;28;20186;-82
2023/04/13 11:45:25;;;;;;;2.25;0.80;;;10.90;99.90;;;;;;5002555;28;20211;-82
2023/04/13 11:47:52;;;;;;;2.40;1.33;;;11.30;99.90;;;;;;5003735;28;20183;-82
2023/04/13 11:50:19;;;;;;;6.78;1.25;;;11.50;99.90;;;;;;5003980;28;20273;-82
2023/04/13 11:52:46;;;;;;;3.75;1.30;;;11.50;99.90;;;;;;5005245;28;20175;-81
2023/04/13 11:55:13;;;;;;;2.00;1.17;;;11.30;99.90;;;;;;5009463;28;20191;-82
2023/04/13 11:57:40;;;;;;;6.85;1.38;;;11.70;99.90;;;;;;5007195;28;20206;-81
2023/04/13 12:00:23;;;;;;;3.80;1.05;;;12.00;99.90;;;;;;5007026;28;20205;-82
2023/04/13 12:02:53;;;;;;;5.97;1.20;;;12.00;99.90;;;;;;5006855;28;20174;-82
2023/04/13 12:05:23;;;;;;;4.47;1.45;;;11.90;99.90;;;;;;5003075;28;20698;-82
2023/04/13 12:07:52;;;;;;;5.95;1.08;;;11.70;99.90;;;;;;5005587;28;20198;-82
2023/04/13 12:10:25;;;;;;;6.53;1.25;;;11.60;99.90;;;;;;5005727;28;20297;-82
2023/04/13 12:13:07;;;;;;;5.47;1.10;;;11.60;99.90;;;;;;5007641;28;20179;-82
2023/04/13 12:15:35;;;;;;;6.00;1.40;;;11.50;99.90;;;;;;5002623;28;20170;-80
2023/04/13 12:18:02;;;;;;;8.05;2.00;;;11.50;99.90;;;;;;5000024;28;20656;-79
2023/04/13 12:20:39;;;;;;;3.15;0.93;;;11.70;99.90;;;;;;5007661;28;20210;-83
2023/04/13 12:23:20;;;;;;;5.78;2.00;;;11.30;99.90;;;;;;5006993;28;20206;-83
2023/04/13 12:25:57;;;;;;;5.97;1.10;;;11.10;99.90;;;;;;5022822;28;20206;-82
2023/04/13 12:28:34;;;;;;;3.15;1.30;;;10.70;99.90;;;;;;5008877;28;20932;-82
2023/04/13 12:31:11;;;;;;;3.38;1.38;;;10.60;99.90;;;;;;5005888;28;20219;-82
2023/04/13 12:33:37;;;;;;;5.22;1.45;;;10.50;99.90;;;;;;5003911;28;20326;-83
2023/04/13 12:36:05;;;;;;;6.50;1.70;;;10.50;99.90;;;;;;5005592;28;20274;-83
2023/04/13 12:38:31;;;;;;;6.20;1.00;;;10.60;99.90;;;;;;5008309;28;20364;-83
2023/04/13 12:40:57;;;;;;;2.60;1.20;;;11.10;99.90;;;;;;5005527;28;20222;-83
2023/04/13 12:43:24;;;;;;;2.72;0.98;;;11.10;99.90;;;;;;5008169;28;20564;-83
2023/04/13 12:45:50;;;;;;;4.05;1.38;;;11.10;99.90;;;;;;5006872;28;20178;-83
2023/04/13 12:48:16;;;;;;;5.68;1.67;;;11.00;99.90;;;;;;5005563;28;20182;-82
2023/04/13 12:50:41;;;;;;;2.93;1.23;;;11.10;99.90;;;;;;5005423;28;20210;-82
2023/04/13 12:53:07;;;;;;;3.07;1.50;;;11.00;99.90;;;;;;5003534;28;20456;-82
2023/04/13 12:55:32;;;;;;;1.77;1.40;;;10.80;99.90;;;;;;5004790;28;20269;-82
2023/04/13 12:57:58;;;;;;;2.30;0.90;;;10.40;99.90;;;;;;5007047;28;20217;-82
2023/04/13 13:00:24;;;;;;;1.60;0.70;;;10.40;99.90;;;;;;5004422;28;20271;-80